Time;durP1;ratioP1;P1;durP2;ratioP2;P2;SDS_P1;SDS_P2;PMS_P1;PMS_P2;Temp;Humidity;BMP_temperature;BMP_pressure;BME280_temperature;BME280_humidity;BME280_pressure;Samples;Min_cycle;Max_cycle;Signal;HPM_P1;HPM_P2
2022/08/21 00:01:58;;;;;;;9.20;5.07;;;;;;;20.57;93.71;94322.25;5126644;27;20256;-76
2022/08/21 00:04:24;;;;;;;10.30;5.20;;;;;;;20.58;94.30;94313.13;5111981;28;20179;-76
2022/08/21 00:06:51;;;;;;;8.02;4.07;;;;;;;20.54;93.44;94317.47;5121991;27;20236;-76
2022/08/21 00:09:17;;;;;;;6.68;4.32;;;;;;;20.34;93.31;94287.19;5132536;27;20574;-76
2022/08/21 00:11:43;;;;;;;11.88;5.30;;;;;;;20.49;93.64;94315.66;5114395;27;20176;-76
2022/08/21 00:14:10;;;;;;;14.63;5.20;;;;;;;20.45;94.04;94314.63;5113658;27;20176;-76
2022/08/21 00:16:37;;;;;;;10.10;5.43;;;;;;;20.42;94.11;94317.84;5122560;27;20613;-76
2022/08/21 00:19:03;;;;;;;8.57;5.18;;;;;;;20.46;94.83;94307.41;5132296;27;20534;-77
2022/08/21 00:21:28;;;;;;;11.98;5.63;;;;;;;20.47;94.89;94309.78;5113912;27;20255;-76
2022/08/21 00:23:54;;;;;;;11.10;5.07;;;;;;;20.45;94.65;94298.56;5120755;27;20260;-76
2022/08/21 00:26:19;;;;;;;7.25;4.50;;;;;;;20.37;94.47;94280.50;5125598;27;20169;-76
2022/08/21 00:28:45;;;;;;;6.47;4.43;;;;;;;20.44;94.60;94296.97;5132594;27;20180;-76
2022/08/21 00:31:11;;;;;;;10.20;4.50;;;;;;;20.37;95.15;94279.69;5132452;27;20267;-76
2022/08/21 00:33:37;;;;;;;8.30;5.57;;;;;;;20.44;94.79;94288.16;5132162;27;20199;-76
2022/08/21 00:36:03;;;;;;;11.65;5.10;;;;;;;20.41;94.57;94294.09;5131971;27;20204;-76
2022/08/21 00:38:29;;;;;;;10.07;4.57;;;;;;;20.39;94.90;94294.38;5131914;27;20179;-76
2022/08/21 00:40:58;;;;;;;10.80;6.00;;;;;;;20.37;95.04;94301.88;5113471;27;20661;-76
2022/08/21 00:43:28;;;;;;;8.20;4.95;;;;;;;20.38;94.43;94295.47;5132156;27;20176;-76
2022/08/21 00:45:55;;;;;;;9.35;4.57;;;;;;;20.29;94.66;94286.44;5132158;27;20254;-76
2022/08/21 00:48:22;;;;;;;9.45;5.18;;;;;;;20.34;94.46;94297.09;5123091;27;20177;-76
2022/08/21 00:50:57;;;;;;;13.93;6.13;;;;;;;20.26;94.40;94305.72;5123323;27;20187;-76
2022/08/21 00:53:24;;;;;;;13.73;6.72;;;;;;;20.09;94.93;94292.00;5131894;27;20654;-76
2022/08/21 00:55:51;;;;;;;11.13;6.45;;;;;;;20.12;95.13;94300.25;5131778;28;20579;-76
2022/08/21 00:58:19;;;;;;;11.18;6.22;;;;;;;20.16;95.27;94301.25;5111230;28;20188;-76
2022/08/21 01:00:47;;;;;;;11.90;7.18;;;;;;;20.17;94.80;94296.72;5111297;28;20177;-76
2022/08/21 01:03:16;;;;;;;10.70;7.20;;;;;;;20.16;95.33;94295.13;5118381;28;20266;-76
2022/08/21 01:05:43;;;;;;;11.85;6.30;;;;;;;20.02;95.36;94268.28;5131379;28;20216;-76
2022/08/21 01:08:10;;;;;;;11.10;6.05;;;;;;;20.17;95.58;94299.38;5131675;28;20599;-76
2022/08/21 01:10:37;;;;;;;12.77;6.70;;;;;;;20.19;95.80;94298.03;5131587;28;20221;-76
2022/08/21 01:13:06;;;;;;;11.00;6.70;;;;;;;20.22;94.90;94281.44;5131636;28;20177;-76
2022/08/21 01:15:34;;;;;;;13.15;6.32;;;;;;;20.08;94.68;94256.47;5131412;28;20189;-76
2022/08/21 01:18:03;;;;;;;9.95;5.70;;;;;;;20.25;94.08;94277.38;5126434;28;20264;-76
2022/08/21 01:20:29;;;;;;;14.60;6.25;;;;;;;20.23;95.05;94269.66;5093091;28;20180;-76
2022/08/21 01:22:54;;;;;;;12.75;6.20;;;;;;;20.19;95.04;94259.81;5121385;28;20165;-76
2022/08/21 01:25:20;;;;;;;10.15;6.43;;;;;;;20.15;94.74;94269.50;5125482;27;20596;-76
2022/08/21 01:27:46;;;;;;;12.75;6.18;;;;;;;20.19;94.68;94273.19;5135675;27;20179;-76
2022/08/21 01:30:17;;;;;;;13.82;7.93;;;;;;;20.08;94.19;94253.78;5135698;27;20172;-76
2022/08/21 01:32:43;;;;;;;11.35;7.53;;;;;;;19.83;94.98;94272.75;5126063;27;20302;-76
2022/08/21 01:35:11;;;;;;;9.57;6.85;;;;;;;19.66;96.03;94241.13;5130965;27;20188;-76
2022/08/21 01:37:37;;;;;;;17.88;9.73;;;;;;;19.76;96.19;94256.28;5114893;28;20199;-76
2022/08/21 01:40:04;;;;;;;10.73;7.10;;;;;;;19.85;96.05;94273.28;5114528;28;20213;-76
2022/08/21 01:42:29;;;;;;;13.45;7.18;;;;;;;19.89;95.81;94277.75;5114754;28;20196;-76
2022/08/21 01:44:56;;;;;;;11.63;7.38;;;;;;;19.77;95.48;94264.00;5114596;28;20181;-76
2022/08/21 01:47:21;;;;;;;13.57;7.28;;;;;;;19.90;95.77;94275.88;5114801;28;20238;-76
2022/08/21 01:49:47;;;;;;;12.23;7.85;;;;;;;19.92;95.44;94276.41;5114812;28;20173;-76
2022/08/21 01:52:12;;;;;;;14.63;7.57;;;;;;;19.98;94.98;94282.53;5114751;28;20180;-76
2022/08/21 01:54:38;;;;;;;9.10;6.53;;;;;;;19.91;94.79;94285.50;5114637;28;20180;-76
2022/08/21 01:57:04;;;;;;;12.68;6.90;;;;;;;19.88;94.38;94280.75;5113507;27;20204;-76
2022/08/21 01:59:30;;;;;;;11.00;6.55;;;;;;;19.87;94.79;94271.94;5135014;27;20722;-76
2022/08/21 02:01:56;;;;;;;9.65;6.97;;;;;;;19.87;94.82;94277.28;5122159;27;20173;-76
2022/08/21 02:04:22;;;;;;;11.30;6.05;;;;;;;19.77;94.75;94272.03;5114582;28;20229;-76
2022/08/21 02:06:48;;;;;;;14.18;7.00;;;;;;;19.90;94.87;94287.38;5114583;28;20173;-76
2022/08/21 02:09:14;;;;;;;12.13;6.82;;;;;;;19.90;94.89;94286.56;5114417;28;20603;-76
2022/08/21 02:11:41;;;;;;;11.27;7.00;;;;;;;19.96;95.09;94290.81;5114360;28;20255;-76
2022/08/21 02:14:08;;;;;;;13.63;7.50;;;;;;;19.96;95.74;94294.28;5114394;28;20241;-76
2022/08/21 02:16:34;;;;;;;13.90;9.10;;;;;;;19.80;95.79;94258.13;5113930;28;20211;-76
2022/08/21 02:19:00;;;;;;;33.97;20.15;;;;;;;20.05;95.30;94293.66;5125670;27;20176;-76
2022/08/21 02:21:26;;;;;;;33.53;19.75;;;;;;;20.03;95.16;94296.59;5134798;27;20180;-76
2022/08/21 02:23:51;;;;;;;17.42;10.77;;;;;;;20.13;94.74;94293.03;5134655;27;20189;-76
2022/08/21 02:26:17;;;;;;;31.10;19.52;;;;;;;19.98;94.41;94276.06;5134444;27;20176;-76
2022/08/21 02:28:43;;;;;;;16.40;10.40;;;;;;;20.15;94.40;94291.66;5134302;27;20176;-76
2022/08/21 02:31:09;;;;;;;14.20;9.05;;;;;;;20.15;94.09;94296.22;5129431;27;20173;-76
2022/08/21 02:33:34;;;;;;;14.48;7.10;;;;;;;20.14;94.13;94299.97;5113948;28;20222;-76
2022/08/21 02:36:01;;;;;;;10.55;6.97;;;;;;;20.03;94.10;94291.25;5112765;28;20566;-76
2022/08/21 02:38:30;;;;;;;14.55;9.05;;;;;;;20.03;94.03;94293.13;5113271;28;20204;-75
2022/08/21 02:40:57;;;;;;;26.23;14.63;;;;;;;20.03;94.17;94299.28;5113162;27;20176;-76
2022/08/21 02:43:25;;;;;;;22.80;14.00;;;;;;;20.06;93.89;94305.94;5121388;27;20188;-76
2022/08/21 02:45:52;;;;;;;18.75;13.27;;;;;;;20.06;93.94;94300.59;5133484;27;20229;-77
2022/08/21 02:48:21;;;;;;;12.25;8.50;;;;;;;19.98;93.87;94302.00;5134144;27;20623;-76
2022/08/21 02:50:52;;;;;;;16.08;9.45;;;;;;;19.96;93.51;94298.81;5134289;27;20607;-77
2022/08/21 02:53:18;;;;;;;19.67;13.32;;;;;;;19.93;93.89;94297.50;5115915;27;20183;-77
2022/08/21 02:55:46;;;;;;;31.08;19.02;;;;;;;19.95;94.41;94297.22;5121463;27;20984;-77
2022/08/21 02:58:12;;;;;;;22.23;13.88;;;;;;;20.00;94.05;94289.16;5112908;28;20235;-77
2022/08/21 03:00:37;;;;;;;19.80;10.43;;;;;;;19.82;93.88;94269.28;5113475;28;20223;-76
2022/08/21 03:03:04;;;;;;;29.77;17.27;;;;;;;19.83;94.00;94268.22;5113574;28;20260;-77
2022/08/21 03:05:31;;;;;;;16.17;10.75;;;;;;;19.97;93.69;94297.75;5117495;27;20188;-77
2022/08/21 03:07:58;;;;;;;15.15;7.35;;;;;;;19.96;93.55;94301.50;5134176;27;20169;-77
2022/08/21 03:10:25;;;;;;;17.48;9.73;;;;;;;19.83;93.91;94297.59;5134105;27;20186;-77
2022/08/21 03:12:51;;;;;;;9.52;6.72;;;;;;;19.85;94.64;94303.47;5134225;27;20199;-77
2022/08/21 03:15:20;;;;;;;16.63;8.43;;;;;;;19.83;94.72;94292.25;5134083;27;20229;-77
2022/08/21 03:17:47;;;;;;;14.20;6.80;;;;;;;19.87;94.88;94298.66;5134109;27;20172;-76
2022/08/21 03:20:15;;;;;;;14.25;8.02;;;;;;;19.88;94.58;94294.09;5114425;27;20181;-77
2022/08/21 03:22:41;;;;;;;13.30;8.20;;;;;;;19.85;94.68;94286.63;5117215;27;20176;-77
2022/08/21 03:25:08;;;;;;;11.27;6.80;;;;;;;19.93;94.37;94300.19;5127270;27;20180;-77
2022/08/21 03:27:34;;;;;;;12.02;7.00;;;;;;;19.77;94.42;94274.69;5113253;28;20180;-77
2022/08/21 03:30:00;;;;;;;10.45;7.38;;;;;;;19.90;94.63;94307.94;5124339;27;20650;-76
2022/08/21 03:32:26;;;;;;;16.90;8.48;;;;;;;19.87;94.38;94298.66;5133601;27;20172;-76
2022/08/21 03:34:51;;;;;;;13.98;7.40;;;;;;;19.88;94.52;94283.41;5133143;27;20666;-76
2022/08/21 03:37:17;;;;;;;13.38;8.73;;;;;;;19.68;94.44;94260.34;5105437;28;20212;-76
2022/08/21 03:39:44;;;;;;;16.90;8.43;;;;;;;19.82;94.55;94279.19;5112669;28;20177;-76
2022/08/21 03:42:10;;;;;;;19.25;10.70;;;;;;;19.90;95.25;94292.72;5112489;28;20244;-76
2022/08/21 03:44:37;;;;;;;25.30;11.63;;;;;;;19.93;94.56;94286.81;5112153;28;20169;-76
2022/08/21 03:47:03;;;;;;;16.20;9.40;;;;;;;19.94;94.47;94290.28;5112258;28;20173;-76
2022/08/21 03:49:29;;;;;;;20.05;11.82;;;;;;;19.94;95.29;94284.94;5112178;28;20252;-76
2022/08/21 03:51:54;;;;;;;22.70;11.27;;;;;;;19.84;95.16;94277.81;5112252;28;20257;-75
2022/08/21 03:54:20;;;;;;;25.65;10.85;;;;;;;19.98;95.61;94302.78;5112304;28;20173;-76
2022/08/21 03:56:45;;;;;;;18.63;10.77;;;;;;;20.04;94.54;94302.75;5112323;27;20760;-76
2022/08/21 03:59:11;;;;;;;22.88;11.13;;;;;;;19.90;94.48;94291.91;5115476;27;20216;-76
2022/08/21 04:01:38;;;;;;;21.25;10.23;;;;;;;19.79;95.08;94283.22;5124037;27;20180;-76
2022/08/21 04:04:04;;;;;;;19.60;10.63;;;;;;;19.93;94.86;94312.75;5133064;27;20179;-76
2022/08/21 04:06:30;;;;;;;20.98;11.05;;;;;;;19.91;95.21;94309.53;5122108;27;20244;-76
2022/08/21 04:08:55;;;;;;;19.70;11.88;;;;;;;19.93;94.75;94310.88;5112265;28;20268;-76
2022/08/21 04:11:21;;;;;;;21.42;10.95;;;;;;;19.95;94.15;94315.94;5112271;28;20655;-76
2022/08/21 04:13:48;;;;;;;28.98;12.18;;;;;;;19.69;94.55;94295.88;5120697;27;20176;-76
2022/08/21 04:16:14;;;;;;;18.40;11.15;;;;;;;19.78;95.03;94319.03;5132623;27;20203;-77
2022/08/21 04:18:39;;;;;;;16.20;10.73;;;;;;;19.81;94.99;94321.13;5122975;27;20164;-77
2022/08/21 04:21:07;;;;;;;21.80;10.93;;;;;;;19.76;94.83;94301.69;5117018;27;20647;-77
2022/08/21 04:23:32;;;;;;;16.63;11.30;;;;;;;19.76;94.83;94310.50;5112001;28;20180;-77
2022/08/21 04:25:58;;;;;;;16.52;9.93;;;;;;;19.74;94.85;94301.97;5123172;27;20168;-77
2022/08/21 04:28:27;;;;;;;15.82;10.10;;;;;;;19.73;94.87;94304.91;5127854;27;20192;-77
2022/08/21 04:30:52;;;;;;;18.77;10.43;;;;;;;19.72;95.71;94309.44;5111781;28;20221;-77
2022/08/21 04:33:18;;;;;;;20.98;10.10;;;;;;;19.70;95.61;94311.63;5121410;27;20169;-77
2022/08/21 04:35:44;;;;;;;18.33;9.82;;;;;;;19.72;96.08;94304.09;5119959;27;20275;-77
2022/08/21 04:38:09;;;;;;;19.05;11.35;;;;;;;19.68;95.49;94295.06;5125887;27;20165;-77
2022/08/21 04:40:36;;;;;;;25.42;13.82;;;;;;;19.84;95.92;94315.22;5132016;27;20172;-76
2022/08/21 04:43:08;;;;;;;21.95;12.70;;;;;;;19.73;96.56;94292.34;5132017;27;20169;-77
2022/08/21 04:45:41;;;;;;;18.65;11.45;;;;;;;19.95;95.58;94310.59;5132337;27;20253;-77
2022/08/21 04:48:08;;;;;;;35.22;16.92;;;;;;;19.95;95.97;94310.59;5132001;27;20186;-76
2022/08/21 04:50:51;;;;;;;27.52;14.32;;;;;;;20.02;95.59;94307.56;5112651;28;20208;-77
2022/08/21 04:53:22;;;;;;;36.22;19.60;;;;;;;20.13;95.34;94311.75;5111308;28;20180;-76
2022/08/21 04:55:47;;;;;;;24.48;13.68;;;;;;;20.24;94.48;94311.34;5110805;28;20357;-77
2022/08/21 04:58:17;;;;;;;14.68;8.63;;;;;;;20.56;92.67;94301.94;5131722;27;20263;-76
2022/08/21 05:00:44;;;;;;;18.17;10.13;;;;;;;21.24;90.65;94293.53;5126621;28;20212;-76
2022/08/21 05:03:11;;;;;;;11.48;7.43;;;;;;;22.28;85.60;94306.53;5111437;28;20169;-77
2022/08/21 05:05:38;;;;;;;10.05;6.03;;;;;;;22.93;80.56;94321.34;5130343;28;20199;-77
2022/08/21 05:08:04;;;;;;;13.68;5.82;;;;;;;23.81;77.66;94329.03;5132078;28;20179;-77
2022/08/21 05:10:31;;;;;;;8.55;5.68;;;;;;;24.11;74.50;94325.59;5131996;28;20305;-77
2022/08/21 05:12:57;;;;;;;10.85;5.53;;;;;;;23.84;74.74;94336.50;5132161;28;20225;-77
2022/08/21 05:15:22;;;;;;;9.52;5.78;;;;;;;23.44;77.57;94333.63;5126851;28;20175;-77
2022/08/21 05:17:48;;;;;;;7.95;5.07;;;;;;;23.09;78.35;94329.84;5128860;28;20178;-77
2022/08/21 05:20:14;;;;;;;7.85;5.22;;;;;;;22.53;79.53;94322.94;5129804;28;20160;-77
2022/08/21 05:22:40;;;;;;;12.30;5.88;;;;;;;22.20;81.15;94316.88;5104770;28;20173;-77
2022/08/21 05:25:06;;;;;;;12.55;5.15;;;;;;;22.03;83.19;94318.53;5103543;28;20184;-77
2022/08/21 05:27:32;;;;;;;10.30;5.88;;;;;;;22.00;83.27;94317.22;5122558;28;20184;-77
2022/08/21 05:29:58;;;;;;;15.43;6.65;;;;;;;21.96;84.21;94310.84;5117223;28;20578;-77
2022/08/21 05:32:24;;;;;;;9.98;6.53;;;;;;;21.81;83.74;94314.56;5124545;28;20177;-77
2022/08/21 05:34:50;;;;;;;9.27;5.30;;;;;;;21.75;84.18;94313.06;5120121;28;20173;-77
2022/08/21 05:37:15;;;;;;;10.32;6.18;;;;;;;21.63;84.28;94307.34;5121367;28;20544;-77
2022/08/21 05:39:41;;;;;;;27.45;13.50;;;;;;;21.61;86.20;94298.84;5115665;28;20165;-76
2022/08/21 05:42:07;;;;;;;13.07;9.23;;;;;;;21.59;86.24;94300.22;5110771;28;20195;-77
2022/08/21 05:44:32;;;;;;;9.20;5.70;;;;;;;21.56;84.27;94306.94;5110530;28;20212;-76
2022/08/21 05:47:09;;;;;;;12.90;7.90;;;;;;;21.43;84.92;94291.63;5124163;28;20169;-76
2022/08/21 05:49:35;;;;;;;27.33;13.23;;;;;;;21.54;86.00;94302.97;5124606;28;20232;-76
2022/08/21 05:52:02;;;;;;;37.88;20.05;;;;;;;21.19;86.09;94289.03;5128458;28;20168;-76
2022/08/21 05:54:27;;;;;;;21.05;13.23;;;;;;;21.08;87.32;94295.63;5095207;28;20611;-75
2022/08/21 05:56:53;;;;;;;14.07;8.27;;;;;;;21.13;88.32;94300.06;5122561;28;20231;-76
2022/08/21 05:59:19;;;;;;;25.77;15.52;;;;;;;21.15;89.50;94296.03;5119143;28;20297;-76
2022/08/21 06:01:45;;;;;;;24.80;13.90;;;;;;;21.16;89.60;94294.16;5110864;28;20213;-76
2022/08/21 06:04:11;;;;;;;14.02;8.35;;;;;;;21.21;89.93;94302.94;5116298;28;20172;-76
2022/08/21 06:06:36;;;;;;;12.30;7.93;;;;;;;21.25;89.89;94295.91;5130773;28;20168;-76
2022/08/21 06:09:03;;;;;;;19.17;10.25;;;;;;;21.30;90.17;94303.88;5113255;28;20230;-76
2022/08/21 06:11:29;;;;;;;16.55;8.90;;;;;;;21.38;89.73;94300.53;5115585;27;20242;-76
2022/08/21 06:13:54;;;;;;;15.88;8.70;;;;;;;21.53;89.50;94301.41;5125440;27;20643;-77
2022/08/21 06:16:20;;;;;;;17.50;8.95;;;;;;;22.07;88.40;94301.53;5129829;27;20622;-76
2022/08/21 06:18:46;;;;;;;14.70;8.00;;;;;;;22.76;86.41;94298.88;5115787;27;20172;-75
2022/08/21 06:21:13;;;;;;;16.73;8.07;;;;;;;23.29;83.09;94305.22;5123051;27;20260;-75
2022/08/21 06:23:39;;;;;;;13.18;7.93;;;;;;;23.57;81.34;94305.97;5126996;27;20172;-75
2022/08/21 06:26:06;;;;;;;11.98;8.02;;;;;;;23.56;80.33;94311.63;5134191;27;20253;-75
2022/08/21 06:28:33;;;;;;;17.90;7.93;;;;;;;23.40;80.03;94305.00;5133134;27;20168;-75
2022/08/21 06:30:59;;;;;;;11.80;7.93;;;;;;;23.27;80.70;94310.09;5122651;27;20181;-75
2022/08/21 06:33:24;;;;;;;15.15;8.73;;;;;;;23.13;81.34;94301.31;5117886;27;20168;-75
2022/08/21 06:35:50;;;;;;;13.07;9.10;;;;;;;23.08;81.70;94308.69;5124448;27;20242;-75
2022/08/21 06:38:16;;;;;;;17.60;9.65;;;;;;;23.02;81.77;94310.66;5124605;27;20604;-75
2022/08/21 06:40:41;;;;;;;14.38;9.32;;;;;;;22.78;82.77;94272.53;5129870;27;20184;-75
2022/08/21 06:43:12;;;;;;;14.57;9.10;;;;;;;23.00;82.94;94318.25;5128866;27;20184;-76
2022/08/21 06:45:38;;;;;;;15.07;8.57;;;;;;;22.99;80.21;94313.19;5116017;27;20198;-75
2022/08/21 06:48:05;;;;;;;15.88;9.65;;;;;;;23.01;82.42;94311.75;5128962;27;20180;-75
2022/08/21 06:50:31;;;;;;;15.05;9.27;;;;;;;23.05;82.04;94304.72;5126161;27;20302;-75
2022/08/21 06:53:02;;;;;;;17.20;11.23;;;;;;;23.18;81.12;94308.44;5128967;27;20181;-75
2022/08/21 06:55:27;;;;;;;22.83;12.77;;;;;;;23.32;81.78;94307.31;5133374;27;20188;-75
2022/08/21 06:57:53;;;;;;;18.25;12.35;;;;;;;23.55;80.55;94318.09;5133449;27;20176;-75
2022/08/21 07:00:20;;;;;;;16.50;12.10;;;;;;;23.73;80.39;94313.66;5132968;27;20228;-75
2022/08/21 07:02:45;;;;;;;20.70;11.02;;;;;;;24.07;79.58;94328.09;5128176;27;20648;-76
2022/08/21 07:05:11;;;;;;;17.38;9.25;;;;;;;24.69;77.67;94330.00;5113295;27;20177;-75
2022/08/21 07:07:36;;;;;;;12.43;7.88;;;;;;;24.92;72.75;94339.59;5114756;27;20181;-76
2022/08/21 07:10:02;;;;;;;13.80;7.78;;;;;;;24.72;72.38;94337.44;5099031;28;20173;-76
2022/08/21 07:12:28;;;;;;;17.67;8.40;;;;;;;24.51;73.05;94318.38;5124229;27;20187;-75
2022/08/21 07:14:53;;;;;;;17.48;8.73;;;;;;;24.58;73.17;94339.44;5126610;27;20187;-76
2022/08/21 07:17:18;;;;;;;12.32;7.15;;;;;;;24.39;73.88;94326.22;5097921;28;20203;-76
2022/08/21 07:19:44;;;;;;;27.42;7.82;;;;;;;24.50;74.42;94335.63;5126409;27;20228;-76
2022/08/21 07:22:09;;;;;;;19.48;10.88;;;;;;;24.43;74.25;94311.84;5121177;27;20191;-76
2022/08/21 07:24:35;;;;;;;13.38;9.07;;;;;;;24.62;73.94;94340.41;5125947;27;20196;-75
2022/08/21 07:27:00;;;;;;;15.35;9.77;;;;;;;24.60;74.19;94316.50;5127838;27;20169;-76
2022/08/21 07:29:26;;;;;;;16.75;9.95;;;;;;;24.66;73.56;94317.94;5117569;27;20176;-76
2022/08/21 07:31:51;;;;;;;15.38;10.23;;;;;;;24.82;73.62;94318.31;5127235;27;20648;-77
2022/08/21 07:34:17;;;;;;;24.35;14.60;;;;;;;25.02;72.62;94323.13;5124283;27;20677;-77
2022/08/21 07:36:42;;;;;;;20.55;10.43;;;;;;;25.26;73.96;94311.09;5126996;27;20763;-76
2022/08/21 07:39:08;;;;;;;10.20;6.53;;;;;;;25.73;72.10;94309.41;5121616;27;20699;-76
2022/08/21 07:41:34;;;;;;;10.63;6.47;;;;;;;26.24;67.33;94314.69;5129201;27;20172;-76
2022/08/21 07:43:59;;;;;;;10.98;6.55;;;;;;;26.37;67.36;94291.34;5115646;27;20594;-75
2022/08/21 07:46:26;;;;;;;11.60;6.88;;;;;;;26.68;68.00;94312.63;5115041;27;20169;-76
2022/08/21 07:48:52;;;;;;;10.55;6.80;;;;;;;26.83;65.36;94317.47;5112150;27;20259;-77
2022/08/21 07:51:20;;;;;;;10.50;6.57;;;;;;;26.80;64.89;94304.66;5118772;27;20191;-78
2022/08/21 07:53:51;;;;;;;17.45;7.07;;;;;;;26.77;64.93;94309.91;5114021;27;20185;-78
2022/08/21 07:56:17;;;;;;;10.65;5.95;;;;;;;26.44;63.74;94291.63;5125735;27;20218;-77
2022/08/21 07:58:43;;;;;;;10.55;6.55;;;;;;;26.21;65.64;94290.22;5121009;27;20180;-79
2022/08/21 08:01:08;;;;;;;7.75;5.68;;;;;;;26.18;64.83;94304.41;5121041;27;20756;-77
2022/08/21 08:03:34;;;;;;;12.43;6.03;;;;;;;25.91;66.10;94290.19;5115926;27;20197;-77
2022/08/21 08:05:59;;;;;;;9.73;5.88;;;;;;;25.65;65.63;94307.50;5116276;27;20172;-77
2022/08/21 08:08:25;;;;;;;9.88;5.80;;;;;;;25.79;68.01;94308.91;5116119;27;20666;-77
2022/08/21 08:10:53;;;;;;;10.00;5.57;;;;;;;26.13;69.03;94310.75;5117513;27;20181;-76
2022/08/21 08:13:18;;;;;;;10.95;5.88;;;;;;;26.06;65.01;94299.66;5118899;27;20167;-77
2022/08/21 08:15:44;;;;;;;13.55;7.15;;;;;;;26.25;66.65;94307.38;5120123;27;20193;-78
2022/08/21 08:18:09;;;;;;;9.07;6.35;;;;;;;26.51;64.24;94310.81;5116570;27;20610;-78
2022/08/21 08:20:35;;;;;;;11.18;5.68;;;;;;;26.52;62.65;94307.00;5101974;27;21494;-78
2022/08/21 08:23:02;;;;;;;9.05;5.32;;;;;;;26.60;64.76;94306.16;5102501;28;20173;-78
2022/08/21 08:25:28;;;;;;;10.00;6.00;;;;;;;26.88;62.93;94308.41;5120278;27;20596;-79
2022/08/21 08:27:53;;;;;;;12.93;7.32;;;;;;;27.30;62.89;94301.97;5107600;27;20268;-80
2022/08/21 08:30:20;;;;;;;12.25;7.22;;;;;;;27.67;60.24;94299.47;5120932;27;20181;-77
2022/08/21 08:32:46;;;;;;;12.73;6.93;;;;;;;27.87;59.86;94309.47;5116498;27;20177;-77
2022/08/21 08:35:12;;;;;;;11.57;6.10;;;;;;;27.93;60.48;94296.53;5114001;27;20290;-76
2022/08/21 08:37:39;;;;;;;9.43;5.72;;;;;;;28.18;58.92;94306.34;5117689;27;20279;-76
2022/08/21 08:40:11;;;;;;;14.48;6.07;;;;;;;28.65;60.91;94300.50;5115835;27;20228;-77
2022/08/21 08:42:37;;;;;;;10.77;6.00;;;;;;;29.12;56.52;94309.81;5117291;27;20173;-77
2022/08/21 08:45:13;;;;;;;9.15;6.43;;;;;;;29.14;54.27;94312.19;5125037;27;20175;-77
2022/08/21 08:47:44;;;;;;;10.27;6.13;;;;;;;28.68;55.01;94314.19;5103523;28;20169;-77
2022/08/21 08:50:35;;;;;;;7.72;5.43;;;;;;;28.49;57.25;94303.91;5120538;28;20313;-77
2022/08/21 08:53:06;;;;;;;11.82;5.93;;;;;;;28.74;58.10;94269.47;5105009;27;20294;-79
2022/08/21 08:55:44;;;;;;;10.07;6.05;;;;;;;29.23;53.13;94294.63;5124831;27;20179;-78
2022/08/21 08:58:25;;;;;;;13.02;4.80;;;;;;;29.03;54.38;94297.50;5114813;28;20193;-79
2022/08/21 09:00:54;;;;;;;9.52;5.28;;;;;;;28.60;53.10;94276.38;5124022;28;20212;-79
2022/08/21 09:03:25;;;;;;;9.98;5.85;;;;;;;28.57;56.18;94280.53;5118560;28;20547;-79
2022/08/21 09:06:08;;;;;;;13.52;4.35;;;;;;;27.96;54.59;94283.09;5118448;28;20162;-78
2022/08/21 09:08:49;;;;;;;8.95;5.10;;;;;;;27.45;55.74;94272.75;5117418;28;20260;-77
2022/08/21 09:11:32;;;;;;;10.13;4.55;;;;;;;27.54;58.94;94271.56;5116444;28;20168;-77
2022/08/21 09:14:20;;;;;;;12.18;4.95;;;;;;;27.55;55.89;94254.22;5125779;28;20263;-77
2022/08/21 09:17:01;;;;;;;8.07;4.05;;;;;;;27.83;57.68;94265.25;5109568;28;20698;-77
2022/08/21 09:19:46;;;;;;;12.68;5.15;;;;;;;28.19;55.90;94272.72;5124677;28;20164;-78
2022/08/21 09:22:14;;;;;;;6.47;3.92;;;;;;;28.72;56.08;94273.63;5125361;28;20616;-77
2022/08/21 09:24:39;;;;;;;10.13;4.10;;;;;;;29.00;55.49;94261.00;5121639;28;20222;-77
2022/08/21 09:27:11;;;;;;;7.32;4.57;;;;;;;29.06;52.32;94259.63;5120502;28;20207;-77
2022/08/21 09:29:40;;;;;;;11.02;5.05;;;;;;;28.95;53.38;94260.47;5118323;28;20173;-77
2022/08/21 09:32:18;;;;;;;16.88;5.25;;;;;;;28.65;53.40;94254.44;5114582;28;20169;-77
2022/08/21 09:35:17;;;;;;;9.90;4.72;;;;;;;28.53;54.53;94249.84;5120417;28;20187;-77
2022/08/21 09:38:01;;;;;;;10.65;4.35;;;;;;;28.19;54.82;94251.06;5110815;28;20717;-78
2022/08/21 09:40:44;;;;;;;8.40;5.25;;;;;;;27.86;55.41;94252.97;5116580;28;20204;-77
2022/08/21 09:43:12;;;;;;;9.90;4.95;;;;;;;27.54;57.23;94241.03;5122379;28;20256;-76
2022/08/21 09:45:41;;;;;;;9.60;4.28;;;;;;;27.67;57.94;94246.16;5121137;27;20183;-76
2022/08/21 09:48:14;;;;;;;11.73;5.05;;;;;;;27.47;56.36;94246.16;5108646;28;20242;-76
2022/08/21 09:50:42;;;;;;;13.90;5.13;;;;;;;27.39;56.88;94247.81;5114620;28;20180;-76
2022/08/21 09:53:20;;;;;;;8.95;5.20;;;;;;;27.21;56.63;94241.75;5125951;27;20176;-76
2022/08/21 09:58:46;;;;;;;9.10;4.38;;;;;;;26.79;57.97;94237.44;5125128;27;20191;-77
2022/08/21 10:01:18;;;;;;;7.28;4.53;;;;;;;26.27;58.55;94227.72;5121487;27;20221;-76
2022/08/21 10:03:44;;;;;;;12.88;4.95;;;;;;;26.06;61.68;94217.91;5122840;27;20172;-76
2022/08/21 10:06:20;;;;;;;9.70;4.80;;;;;;;26.13;61.13;94226.28;5114861;27;20564;-76
2022/08/21 10:08:46;;;;;;;10.93;4.55;;;;;;;26.11;61.53;94213.16;5116774;27;20662;-76
2022/08/21 10:11:14;;;;;;;11.32;4.07;;;;;;;25.91;60.70;94224.63;5125264;27;20168;-76
2022/08/21 10:13:48;;;;;;;6.82;4.07;;;;;;;25.74;61.50;94209.28;5128046;27;20172;-78
2022/08/21 10:16:41;;;;;;;7.53;3.67;;;;;;;25.83;62.60;94199.28;5128471;27;20196;-78
2022/08/21 10:19:17;;;;;;;8.00;4.00;;;;;;;25.92;62.40;94215.44;5123706;27;20177;-77
2022/08/21 10:21:45;;;;;;;10.40;4.50;;;;;;;25.87;62.56;94208.28;5133573;27;20567;-75
2022/08/21 10:24:24;;;;;;;8.15;3.78;;;;;;;25.99;62.58;94206.84;5133234;27;20184;-75
2022/08/21 10:27:15;;;;;;;6.07;3.90;;;;;;;26.26;65.78;94201.84;5122223;27;20179;-75
2022/08/21 10:29:59;;;;;;;7.03;3.25;;;;;;;26.65;61.12;94200.66;5121397;27;20173;-75
2022/08/21 10:32:58;;;;;;;5.72;3.67;;;;;;;26.81;58.27;94206.25;5118946;27;20637;-75
2022/08/21 10:35:23;;;;;;;7.00;3.88;;;;;;;26.46;59.63;94203.00;5116974;27;20223;-75
2022/08/21 10:37:52;;;;;;;11.00;3.88;;;;;;;26.43;60.11;94198.25;5116756;27;20224;-74
2022/08/21 10:40:45;;;;;;;7.05;3.65;;;;;;;26.42;59.89;94202.06;5115660;27;20218;-74
2022/08/21 10:43:25;;;;;;;5.82;3.47;;;;;;;26.44;59.52;94204.44;5122529;27;20196;-74
2022/08/21 10:46:03;;;;;;;8.80;3.38;;;;;;;26.31;58.59;94176.53;5113449;27;20243;-74
2022/08/21 10:48:54;;;;;;;7.80;3.70;;;;;;;26.45;59.27;94187.91;5116516;27;20169;-74
2022/08/21 10:51:40;;;;;;;6.25;3.95;;;;;;;26.47;58.22;94188.38;5112786;27;20168;-74
2022/08/21 10:54:51;;;;;;;7.22;3.92;;;;;;;26.56;59.29;94180.22;5115811;27;20200;-74
2022/08/21 10:57:38;;;;;;;15.45;4.20;;;;;;;26.42;62.81;94171.56;5118267;27;20238;-74
2022/08/21 11:00:13;;;;;;;10.38;4.63;;;;;;;26.50;61.14;94168.81;5129530;27;20254;-74
2022/08/21 11:02:48;;;;;;;7.85;4.20;;;;;;;26.43;61.46;94165.06;5120563;27;20258;-74
2022/08/21 11:05:38;;;;;;;7.68;4.28;;;;;;;26.22;60.79;94165.78;5114657;27;20175;-74
2022/08/21 11:08:12;;;;;;;9.15;5.13;;;;;;;26.38;61.01;94168.72;5125992;27;20222;-76
2022/08/21 11:10:43;;;;;;;10.02;4.47;;;;;;;26.56;60.07;94164.78;5128105;27;20652;-74
2022/08/21 11:13:32;;;;;;;7.25;4.57;;;;;;;26.54;59.96;94155.47;5097212;28;20648;-75
2022/08/21 11:16:10;;;;;;;11.63;5.78;;;;;;;26.64;60.73;94150.44;5116505;27;20204;-75
2022/08/21 11:18:49;;;;;;;7.65;4.13;;;;;;;26.74;60.87;94149.25;5112098;28;20187;-75
2022/08/21 11:21:26;;;;;;;8.65;4.53;;;;;;;26.89;60.22;94146.00;5123161;27;20180;-76
2022/08/21 11:24:13;;;;;;;7.10;4.05;;;;;;;27.05;59.72;94148.91;5126590;27;20192;-76
2022/08/21 11:26:44;;;;;;;8.93;4.57;;;;;;;27.07;59.99;94138.53;5106021;28;20533;-78
2022/08/21 11:29:24;;;;;;;9.95;4.75;;;;;;;27.10;58.49;94156.78;5127607;27;20169;-75
2022/08/21 11:31:55;;;;;;;10.02;4.15;;;;;;;27.00;59.12;94146.38;5129947;27;20177;-77
2022/08/21 11:34:24;;;;;;;9.65;4.75;;;;;;;26.77;60.54;94145.13;5111974;28;20239;-77
2022/08/21 11:36:58;;;;;;;9.25;4.25;;;;;;;26.63;60.38;94145.41;5122427;27;20205;-78
2022/08/21 11:39:41;;;;;;;8.55;4.30;;;;;;;26.22;61.27;94146.09;5116337;27;20217;-78